»·PEaware :: N333ZS KTRM-KSBD

N333ZS :: KTRM-KSBD

FLIGHT INFORMATION

Flight Status: Arrived
Operator: Privately registered:
United States
More flights under this callsign
Pilot: Judd H. (29974)
Aircraft: CESSNA 182 SKYLANE
(C182)
More flights by this aircraft type
Origin: KTRM Desert Resorts Regl
United States
Destination: KSBD San Bernardino Intl
United States
More flights between these airports :: More routes between these airports
Route: PSP
File this flight plan on PilotEdge
Remarks:
Altitude:
(Current/Filed)
6,500ft
Speed:
(Current/Filed)
125kts
Departed: 07-Aug-20 01:00 PM
Arrived: 07-Aug-20 01:34 PM
Distance/Time
Traveled:
60nm/0:33
Distance/Time
To Go:
Arrived

Flight Plot

Page will automatically refresh every two minutes.

Flight plan parsing failed; only flown route is shown


Map Options




Map Legend


Flown Route
Filed Route
Departure Airport
Arrival Airport
Navaid (VOR, NDB)
Fix

Horizontal Profiles

Position Reports

Time Latitude Longitude Heading Altitude Ground
Speed
07-Aug-20 12:48 33.636868 -116.158362 89 -110ft 0kts
07-Aug-20 12:49 33.636868 -116.158362 89 -110ft 0kts
07-Aug-20 12:50 33.636868 -116.158362 89 -110ft 0kts
07-Aug-20 12:51 33.636868 -116.158362 89 -110ft 0kts
07-Aug-20 12:52 33.636868 -116.158361 89 -110ft 0kts
07-Aug-20 12:53 33.636868 -116.158360 89 -110ft 0kts
07-Aug-20 12:54 33.636868 -116.158359 89 -110ft 0kts
07-Aug-20 12:55 33.636868 -116.158358 89 -110ft 0kts
07-Aug-20 12:56 33.636868 -116.158357 89 -110ft 0kts
07-Aug-20 12:57 33.637767 -116.157727 1 -110ft 10kts
07-Aug-20 12:58 33.639081 -116.157136 90 -110ft 0kts
07-Aug-20 12:59 33.624091 -116.156269 177 133ft 109kts
07-Aug-20 13:00 33.594619 -116.148978 114 1056ft 128kts
07-Aug-20 13:01 33.611658 -116.120348 27 2170ft 116kts
07-Aug-20 13:02 33.642752 -116.120920 338 3122ft 120kts
07-Aug-20 13:03 33.674062 -116.137721 329 3965ft 124kts
07-Aug-20 13:04 33.700990 -116.164579 310 4681ft 126kts
07-Aug-20 13:05 33.724563 -116.196395 310 5363ft 128kts
07-Aug-20 13:06 33.748048 -116.228541 310 6014ft 128kts
07-Aug-20 13:07 33.771424 -116.258912 311 6642ft 126kts
07-Aug-20 13:08 33.796098 -116.292107 310 6768ft 138kts
07-Aug-20 13:09 33.822766 -116.328051 311 6568ft 148kts
07-Aug-20 13:10 33.847355 -116.367136 300 6452ft 143kts
07-Aug-20 13:11 33.867564 -116.408022 300 6455ft 142kts
07-Aug-20 13:12 33.880849 -116.452566 287 6460ft 142kts
07-Aug-20 13:13 33.892363 -116.498002 286 6456ft 142kts
07-Aug-20 13:14 33.903679 -116.543558 286 6456ft 142kts
07-Aug-20 13:15 33.914902 -116.589168 286 6459ft 141kts
07-Aug-20 13:16 33.925952 -116.634605 286 6464ft 141kts
07-Aug-20 13:17 33.937208 -116.680115 286 6471ft 141kts
07-Aug-20 13:18 33.949378 -116.725303 288 6479ft 141kts
07-Aug-20 13:19 33.962453 -116.770009 289 6490ft 141kts
07-Aug-20 13:20 33.975487 -116.814623 289 6500ft 141kts
07-Aug-20 13:21 33.988434 -116.859142 289 6506ft 141kts
07-Aug-20 13:22 33.997338 -116.904053 280 5993ft 134kts
07-Aug-20 13:23 34.003702 -116.948296 280 5482ft 133kts
07-Aug-20 13:24 34.009872 -116.992956 280 4911ft 136kts
07-Aug-20 13:25 34.015839 -117.035541 280 4745ft 119kts
07-Aug-20 13:26 34.021108 -117.074033 281 4719ft 116kts
07-Aug-20 13:27 34.028828 -117.109803 295 3898ft 108kts
07-Aug-20 13:28 34.041745 -117.142455 294 3092ft 107kts
07-Aug-20 13:29 34.062264 -117.164712 331 2605ft 98kts
07-Aug-20 13:30 34.086862 -117.179984 328 2405ft 98kts
07-Aug-20 13:32 34.105971 -117.196828 266 1748ft 82kts
07-Aug-20 13:33 34.099458 -117.220980 252 1143ft 63kts
07-Aug-20 13:34 34.098741 -117.227129 41 1122ft 8kts
07-Aug-20 13:35 34.101224 -117.224420 13 1122ft 4kts
07-Aug-20 13:36 34.101427 -117.225089 180 1122ft 0kts
07-Aug-20 13:37 34.101427 -117.225089 180 1122ft 0kts
07-Aug-20 13:38 34.101427 -117.225089 180 1122ft 0kts
07-Aug-20 13:39 34.101427 -117.225089 180 1122ft 0kts

Navigation Log

Ident Type
Flight plan parsing failed, navigation log unavailable